CheckWX is a tool to help pilots better visualize weather data.  It is not intended as a substitute for an official pre-flight weather briefing.

14:48:42 UTC

LFMK TAF
Carcassonne Airport
Carcassonne/Salvaza, France
TAF LFMK 231400Z 2315/2415 28013KT CAVOK BECMG 2318/2320 VRB04KT BECMG 2408/2410 28010KT

Mar-23@
15:00 UTC

Mar-23 @ 15:00 UTC

Mar-23@
18:00 UTC

Mar-23 @ 18:00 UTC

TAF LFMK 231400Z 2315/2415 28013KT CAVOK
Wind
  • 280° at 13 KTS
Conditions
No significant weather
Cloud Levels
  • No significant clouds

Mar-23@
18:00 UTC

Mar-23 @ 18:00 UTC

Mar-24@
08:00 UTC

Mar-24 @ 08:00 UTC

BECMG 2318/2320 VRB04KT

Becoming

Becoming Conditions expected by Sat, Mar 23, 2019 @ 20:00 UTC

Wind
  • Variable at 4 KTS
Conditions
No significant weather
Cloud Levels
  • No significant clouds

Mar-24@
08:00 UTC

Mar-24 @ 08:00 UTC

Mar-24@
15:00 UTC

Mar-24 @ 15:00 UTC

BECMG 2408/2410 28010KT

Becoming

Becoming Conditions expected by Sun, Mar 24, 2019 @ 10:00 UTC

Wind
  • 280° at 10 KTS
Conditions
No significant weather
Cloud Levels
  • No significant clouds